Terminal Aerodrome Forecast
Issued by NWS Shreveport, LA

Home | Current Version | Previous Version | Text Only | Print | Product List | Glossary On
Versions: 1 2 3 4 5 6 7 8 9 10 11 12 13 14 15 16 17 18 19 20 21 22 23 24 25 26 27 28 29 30 31 32 33 34 35 36 37 38 39
857
FTUS44 KSHV 232342
TAFSHV
TAF
KSHV 232342Z 2400/2424 11005KT P6SM FEW060 SCT160 SCT270
     FM240600 14006KT 5SM BR OVC050
      TEMPO 2409/2412 2SM BR OVC007
     FM241200 18010KT 2SM BR OVC007
     FM241500 17013KT 2SM -SHRA OVC015
     FM241800 18018G26KT P6SM VCTS OVC025CB
     FM242100 19021G30KT P6SM -TSRA OVC035CB=

USA.gov is the U.S. government's official web portal to all federal, state and local government web resources and services.